Time;durP1;ratioP1;P1;durP2;ratioP2;P2;SDS_P1;SDS_P2;PMS_P1;PMS_P2;Temp;Humidity;BMP_temperature;BMP_pressure;BME280_temperature;BME280_humidity;BME280_pressure;Samples;Min_cycle;Max_cycle;Signal;HPM_P1;HPM_P2
2022/08/09 00:02:06;;;;;;;6.75;3.45;;;15.60;99.90;;;;;;5041925;28;20080;-57
2022/08/09 00:04:33;;;;;;;6.40;3.70;;;15.60;99.90;;;;;;5041445;28;20490;-57
2022/08/09 00:06:59;;;;;;;7.47;4.57;;;15.60;99.90;;;;;;5041721;28;20049;-57
2022/08/09 00:09:25;;;;;;;8.15;4.20;;;15.50;99.90;;;;;;5041698;28;20056;-57
2022/08/09 00:11:51;;;;;;;7.53;4.40;;;15.50;99.90;;;;;;5039884;28;20042;-57
2022/08/09 00:14:17;;;;;;;7.50;4.65;;;15.50;99.90;;;;;;5041454;28;20057;-57
2022/08/09 00:16:42;;;;;;;9.73;5.22;;;15.40;99.90;;;;;;5039693;28;20029;-58
2022/08/09 00:19:08;;;;;;;7.82;5.03;;;15.60;99.90;;;;;;5039604;28;20053;-57
2022/08/09 00:21:35;;;;;;;7.55;4.40;;;15.50;99.90;;;;;;5038145;28;20041;-58
2022/08/09 00:24:01;;;;;;;7.97;4.07;;;15.50;99.90;;;;;;5040581;28;20167;-58
2022/08/09 00:26:29;;;;;;;6.95;4.35;;;15.50;99.90;;;;;;5040060;28;20045;-58
2022/08/09 00:28:56;;;;;;;7.93;4.40;;;15.40;99.90;;;;;;5040271;28;20126;-59
2022/08/09 00:31:23;;;;;;;6.63;3.80;;;15.40;99.90;;;;;;5058717;28;20045;-58
2022/08/09 00:33:50;;;;;;;6.63;4.15;;;15.40;99.90;;;;;;5059344;28;20029;-58
2022/08/09 00:36:16;;;;;;;9.65;4.55;;;15.40;99.90;;;;;;5060505;28;20063;-58
2022/08/09 00:38:43;;;;;;;6.60;3.90;;;15.50;99.90;;;;;;5059279;28;20053;-59
2022/08/09 00:41:09;;;;;;;7.68;4.05;;;15.40;99.90;;;;;;5060215;28;20071;-58
2022/08/09 00:43:36;;;;;;;7.82;3.90;;;15.40;99.90;;;;;;5058436;28;20037;-58
2022/08/09 00:46:04;;;;;;;6.00;3.28;;;15.50;99.90;;;;;;5059254;28;20063;-58
2022/08/09 00:48:30;;;;;;;7.03;3.90;;;15.40;99.90;;;;;;5060147;28;20055;-57
2022/08/09 00:50:56;;;;;;;6.38;3.42;;;15.40;99.90;;;;;;5058859;28;20515;-58
2022/08/09 00:53:22;;;;;;;5.85;3.80;;;15.30;99.90;;;;;;5060298;28;20056;-58
2022/08/09 00:55:48;;;;;;;6.90;3.80;;;15.30;99.90;;;;;;5059141;28;20057;-58
2022/08/09 00:58:13;;;;;;;7.03;4.07;;;15.30;99.90;;;;;;5060033;28;20036;-59
2022/08/09 01:00:42;;;;;;;6.30;3.75;;;15.20;99.90;;;;;;5059588;28;20153;-58
2022/08/09 01:03:23;;;;;;;7.03;3.90;;;15.20;99.90;;;;;;5059578;28;20056;-58
2022/08/09 01:06:05;;;;;;;7.60;4.45;;;15.30;99.90;;;;;;5060510;28;20643;-57
2022/08/09 01:08:41;;;;;;;;;;;15.20;99.90;;;;;;5059403;28;20044;-58
2022/08/09 01:11:31;;;;;;;7.35;4.30;;;15.10;99.90;;;;;;5058711;28;19921;-58
2022/08/09 01:14:05;;;;;;;7.85;4.13;;;15.10;99.90;;;;;;5059619;28;20052;-58
2022/08/09 01:16:43;;;;;;;7.93;4.68;;;15.20;99.90;;;;;;5057536;28;20059;-58
2022/08/09 01:19:36;;;;;;;7.20;4.22;;;15.10;99.90;;;;;;5059126;28;20041;-59
2022/08/09 01:22:27;;;;;;;7.30;3.20;;;15.00;99.90;;;;;;5057419;28;20064;-57
2022/08/09 01:25:17;;;;;;;6.05;3.10;;;14.90;99.90;;;;;;5049359;28;20057;-57
2022/08/09 01:27:47;;;;;;;6.32;2.78;;;14.80;99.90;;;;;;5059193;28;20123;-58
2022/08/09 01:30:12;;;;;;;6.63;2.78;;;14.80;99.90;;;;;;5057482;28;20041;-57
2022/08/09 01:32:44;;;;;;;5.18;2.83;;;14.60;99.90;;;;;;5058829;28;20044;-58
2022/08/09 01:35:32;;;;;;;5.35;2.67;;;14.70;99.90;;;;;;5058150;28;20037;-58
2022/08/09 01:38:03;;;;;;;4.95;2.47;;;14.70;99.90;;;;;;5059014;28;20064;-57
2022/08/09 01:40:32;;;;;;;4.22;1.77;;;14.80;99.90;;;;;;5063120;28;20045;-57
2022/08/09 01:42:58;;;;;;;4.70;1.80;;;14.70;99.90;;;;;;5061128;28;20094;-57
2022/08/09 01:45:25;;;;;;;5.13;2.05;;;14.60;99.90;;;;;;5062642;28;20041;-57
2022/08/09 01:47:52;;;;;;;4.35;2.00;;;14.60;99.90;;;;;;5061477;28;20114;-57
2022/08/09 01:50:22;;;;;;;4.22;1.92;;;14.50;99.90;;;;;;5062358;28;20056;-57
2022/08/09 01:52:49;;;;;;;6.25;1.92;;;14.70;99.90;;;;;;5062386;28;20039;-57
2022/08/09 01:55:16;;;;;;;3.72;1.50;;;14.70;99.90;;;;;;5061205;28;20053;-58
2022/08/09 01:57:45;;;;;;;5.05;2.10;;;14.80;99.90;;;;;;5062780;28;20080;-57
2022/08/09 02:00:13;;;;;;;4.63;2.03;;;14.70;99.90;;;;;;5060920;28;20052;-58
2022/08/09 02:02:43;;;;;;;5.60;2.50;;;14.70;99.90;;;;;;5062290;28;20103;-57
2022/08/09 02:05:11;;;;;;;4.80;2.15;;;14.80;99.90;;;;;;5061480;28;20051;-58
2022/08/09 02:07:43;;;;;;;5.22;2.60;;;14.70;99.90;;;;;;5061441;28;20064;-58
2022/08/09 02:10:17;;;;;;;4.53;2.15;;;14.70;99.90;;;;;;5062399;28;20041;-58
2022/08/09 02:12:44;;;;;;;4.93;2.72;;;14.70;99.90;;;;;;5060550;28;20041;-57
2022/08/09 02:15:13;;;;;;;7.45;2.90;;;14.70;99.90;;;;;;5062098;28;20049;-57
2022/08/09 02:17:41;;;;;;;4.65;2.33;;;14.70;99.90;;;;;;5060652;28;20057;-57
2022/08/09 02:20:07;;;;;;;5.72;2.80;;;14.70;99.90;;;;;;5061792;28;20550;-57
2022/08/09 02:22:49;;;;;;;5.55;2.50;;;14.60;99.90;;;;;;5061505;28;20049;-56
2022/08/09 02:25:23;;;;;;;5.75;2.83;;;14.70;99.90;;;;;;5060376;28;20515;-57
2022/08/09 02:27:55;;;;;;;6.25;2.97;;;14.70;99.90;;;;;;5061888;28;20109;-57
2022/08/09 02:30:21;;;;;;;;;;;14.70;99.90;;;;;;5060775;28;20033;-57
2022/08/09 02:32:48;;;;;;;5.68;3.00;;;14.60;99.90;;;;;;5060175;28;19928;-57
2022/08/09 02:35:20;;;;;;;7.82;2.92;;;14.60;99.90;;;;;;5061230;28;20048;-57
2022/08/09 02:37:50;;;;;;;6.00;3.55;;;14.70;99.90;;;;;;5060677;28;20033;-57
2022/08/09 02:40:17;;;;;;;5.45;3.13;;;14.70;99.90;;;;;;5061974;28;20060;-57
2022/08/09 02:42:46;;;;;;;6.40;3.47;;;14.60;99.90;;;;;;5060027;28;20045;-57
2022/08/09 02:45:28;;;;;;;6.55;3.60;;;14.60;99.90;;;;;;5061606;28;20913;-57
2022/08/09 02:47:55;;;;;;;;;;;14.60;99.90;;;;;;5061208;28;20053;-56
2022/08/09 02:50:25;;;;;;;6.40;3.78;;;14.60;99.90;;;;;;5058411;28;19921;-58
2022/08/09 02:52:58;;;;;;;7.22;3.80;;;14.60;99.90;;;;;;5061325;28;20052;-57
2022/08/09 02:55:26;;;;;;;7.82;3.78;;;14.60;99.90;;;;;;5059818;28;20052;-57
2022/08/09 02:57:53;;;;;;;7.72;3.40;;;14.50;99.90;;;;;;5060131;28;20053;-57
2022/08/09 03:00:21;;;;;;;7.63;4.00;;;14.50;99.90;;;;;;5060043;28;20063;-57
2022/08/09 03:02:51;;;;;;;7.63;4.05;;;14.60;99.90;;;;;;5061043;28;20041;-58
2022/08/09 03:05:18;;;;;;;8.85;4.80;;;14.50;99.90;;;;;;5060553;28;20044;-57
2022/08/09 03:07:46;;;;;;;7.50;4.10;;;14.50;99.90;;;;;;5060065;28;20040;-58
2022/08/09 03:10:12;;;;;;;7.50;3.97;;;14.50;99.90;;;;;;5061490;28;20079;-57
2022/08/09 03:12:39;;;;;;;7.72;4.18;;;14.60;99.90;;;;;;5059473;28;20067;-57
2022/08/09 03:15:08;;;;;;;7.75;4.30;;;14.50;99.90;;;;;;5059695;28;20060;-57
2022/08/09 03:17:35;;;;;;;7.32;3.55;;;14.50;99.90;;;;;;5059585;28;20052;-57
2022/08/09 03:20:01;;;;;;;8.10;3.83;;;14.50;99.90;;;;;;5060983;28;20159;-57
2022/08/09 03:22:29;;;;;;;6.32;3.40;;;14.40;99.90;;;;;;5060266;28;20075;-57
2022/08/09 03:24:55;;;;;;;7.80;3.55;;;14.40;99.90;;;;;;5059987;28;20037;-58
2022/08/09 03:27:23;;;;;;;6.25;3.58;;;14.40;99.90;;;;;;5061046;28;20076;-57
2022/08/09 03:29:53;;;;;;;6.80;3.70;;;14.40;99.90;;;;;;5058811;28;20132;-57
2022/08/09 03:32:20;;;;;;;7.38;3.65;;;14.40;99.90;;;;;;5060283;28;20040;-57
2022/08/09 03:34:46;;;;;;;6.60;3.28;;;14.50;99.90;;;;;;5058848;28;20041;-57
2022/08/09 03:37:12;;;;;;;6.18;3.13;;;14.40;99.90;;;;;;5060307;28;20044;-57
2022/08/09 03:39:38;;;;;;;5.90;2.78;;;14.40;99.90;;;;;;5059999;28;20040;-57
2022/08/09 03:42:04;;;;;;;6.55;3.42;;;14.30;99.90;;;;;;5059410;28;20047;-58
2022/08/09 03:44:30;;;;;;;7.78;3.50;;;14.30;99.90;;;;;;5060588;28;20063;-57
2022/08/09 03:46:55;;;;;;;6.47;3.13;;;14.20;99.90;;;;;;5059311;28;20075;-57
2022/08/09 03:49:24;;;;;;;7.57;3.40;;;14.20;99.90;;;;;;5060340;28;20076;-57
2022/08/09 03:51:56;;;;;;;7.15;3.38;;;14.20;99.90;;;;;;5058898;28;20071;-58
2022/08/09 03:54:25;;;;;;;7.53;3.70;;;14.10;99.90;;;;;;5060009;28;20051;-57
2022/08/09 03:56:52;;;;;;;8.00;3.40;;;14.00;99.90;;;;;;5058343;28;20338;-58
2022/08/09 03:59:17;;;;;;;8.05;3.58;;;14.00;99.90;;;;;;5058994;28;20049;-58
2022/08/09 04:01:44;;;;;;;10.02;3.55;;;14.00;99.90;;;;;;5060376;28;20124;-58
2022/08/09 04:04:11;;;;;;;7.78;3.90;;;14.00;99.90;;;;;;5057299;28;20041;-58
2022/08/09 04:06:37;;;;;;;6.45;3.40;;;14.00;99.90;;;;;;5059941;28;20049;-58
2022/08/09 04:09:05;;;;;;;6.28;3.15;;;14.00;99.90;;;;;;5058679;28;20053;-57
2022/08/09 04:11:45;;;;;;;8.02;3.17;;;14.00;99.90;;;;;;5059645;28;20052;-58
2022/08/09 04:14:11;;;;;;;7.50;3.20;;;14.00;99.90;;;;;;5059760;28;20140;-58
2022/08/09 04:16:37;;;;;;;7.43;3.92;;;14.10;99.90;;;;;;5058475;28;20103;-57
2022/08/09 04:19:03;;;;;;;7.63;3.08;;;14.10;99.90;;;;;;5060071;28;20041;-57
2022/08/09 04:21:28;;;;;;;6.97;2.83;;;14.00;99.90;;;;;;5058238;28;20045;-57
2022/08/09 04:23:54;;;;;;;6.72;2.88;;;14.00;99.90;;;;;;5059722;28;20120;-56
2022/08/09 04:26:20;;;;;;;6.82;2.85;;;13.90;99.90;;;;;;5057288;28;20065;-57
2022/08/09 04:28:45;;;;;;;6.80;3.03;;;14.00;99.90;;;;;;5059300;28;20037;-57
2022/08/09 04:31:11;;;;;;;7.35;3.17;;;14.00;99.90;;;;;;5059322;28;20068;-57
2022/08/09 04:33:38;;;;;;;6.35;3.35;;;14.00;99.90;;;;;;5058429;28;20048;-56
2022/08/09 04:36:04;;;;;;;5.63;2.45;;;14.00;99.90;;;;;;5060016;28;20077;-57
2022/08/09 04:38:29;;;;;;;7.82;2.60;;;14.00;99.90;;;;;;5057847;28;20041;-58
2022/08/09 04:40:56;;;;;;;6.50;3.17;;;14.00;99.90;;;;;;5059578;28;20049;-58
2022/08/09 04:43:22;;;;;;;6.97;2.90;;;13.90;99.90;;;;;;5058213;28;20052;-57
2022/08/09 04:45:48;;;;;;;17.40;2.60;;;13.70;99.90;;;;;;5059253;28;20038;-58
2022/08/09 04:48:14;;;;;;;21.98;2.72;;;13.50;99.90;;;;;;5059077;28;20041;-57
2022/08/09 04:50:41;;;;;;;16.45;3.20;;;13.40;99.90;;;;;;5058234;28;20071;-58
2022/08/09 04:53:09;;;;;;;8.95;3.13;;;13.30;99.90;;;;;;5059341;28;20064;-57
2022/08/09 04:55:36;;;;;;;9.57;2.70;;;13.30;99.90;;;;;;5056434;28;20049;-57
2022/08/09 04:58:02;;;;;;;9.07;2.30;;;13.30;99.90;;;;;;5059138;28;20136;-57
2022/08/09 05:00:28;;;;;;;5.43;2.30;;;13.30;99.90;;;;;;5058126;28;20076;-58
2022/08/09 05:02:55;;;;;;;6.30;2.60;;;13.50;99.90;;;;;;5059184;28;20041;-58
2022/08/09 05:05:21;;;;;;;6.05;2.53;;;13.80;99.90;;;;;;5058944;28;20083;-58
2022/08/09 05:07:47;;;;;;;4.97;2.40;;;13.90;99.90;;;;;;5057922;28;20060;-58
2022/08/09 05:10:13;;;;;;;7.35;3.20;;;14.00;99.90;;;;;;5059678;28;20049;-59
2022/08/09 05:12:40;;;;;;;6.03;2.67;;;14.20;99.90;;;;;;5058549;28;20045;-58
2022/08/09 05:15:06;;;;;;;6.93;3.10;;;14.20;99.90;;;;;;5063104;28;20061;-58
2022/08/09 05:17:32;;;;;;;5.95;2.72;;;14.30;99.90;;;;;;5061826;28;20081;-58
2022/08/09 05:19:58;;;;;;;5.10;2.60;;;14.50;99.90;;;;;;5062948;28;20057;-58
2022/08/09 05:22:23;;;;;;;6.70;2.70;;;14.60;99.90;;;;;;5062237;28;20048;-57
2022/08/09 05:24:49;;;;;;;5.53;2.50;;;14.70;99.90;;;;;;5062049;28;20055;-58
2022/08/09 05:27:15;;;;;;;6.05;2.67;;;14.80;99.90;;;;;;5063333;28;20037;-58
2022/08/09 05:29:40;;;;;;;6.38;2.95;;;14.90;99.90;;;;;;5061035;28;20033;-58
2022/08/09 05:32:06;;;;;;;6.43;3.03;;;15.10;99.90;;;;;;5063201;28;20045;-58
2022/08/09 05:34:32;;;;;;;7.00;3.25;;;15.10;99.90;;;;;;5061771;28;20067;-58
2022/08/09 05:37:03;;;;;;;6.60;3.65;;;15.20;99.90;;;;;;5062654;28;20038;-58
2022/08/09 05:39:29;;;;;;;7.63;3.60;;;15.30;99.90;;;;;;5062317;28;20044;-57
2022/08/09 05:41:54;;;;;;;6.90;4.03;;;15.40;99.90;;;;;;5062017;28;20318;-58
2022/08/09 05:44:20;;;;;;;9.15;4.70;;;15.50;99.90;;;;;;5063118;28;20037;-58
2022/08/09 05:46:46;;;;;;;8.80;4.70;;;15.60;99.90;;;;;;5061085;28;20066;-57
2022/08/09 05:49:11;;;;;;;10.35;5.78;;;15.70;99.90;;;;;;5062724;28;20048;-57
2022/08/09 05:51:37;;;;;;;9.68;5.93;;;15.90;99.90;;;;;;5060840;28;20053;-57
2022/08/09 05:54:03;;;;;;;10.43;5.68;;;16.10;99.90;;;;;;5062504;28;20769;-57
2022/08/09 05:56:29;;;;;;;10.98;6.72;;;16.10;99.90;;;;;;5061520;28;20045;-57
2022/08/09 05:58:58;;;;;;;9.93;6.20;;;16.30;99.90;;;;;;5061890;28;20128;-57
2022/08/09 06:01:28;;;;;;;12.60;6.68;;;16.40;99.90;;;;;;5058666;28;20051;-58
2022/08/09 06:03:55;;;;;;;11.25;6.97;;;16.50;99.90;;;;;;5057312;28;20041;-57
2022/08/09 06:06:21;;;;;;;13.00;7.25;;;16.60;99.90;;;;;;5059273;28;20055;-58
2022/08/09 06:08:47;;;;;;;11.73;6.50;;;16.70;99.90;;;;;;5057971;28;20055;-58
2022/08/09 06:11:12;;;;;;;10.15;6.25;;;16.80;99.90;;;;;;5058873;28;20104;-58
2022/08/09 06:13:38;;;;;;;11.55;6.53;;;16.90;99.90;;;;;;5057868;28;20067;-58
2022/08/09 06:16:04;;;;;;;10.52;6.25;;;16.90;99.90;;;;;;5057965;28;20053;-59
2022/08/09 06:18:31;;;;;;;12.68;6.25;;;17.10;99.90;;;;;;5058896;28;20451;-58
2022/08/09 06:20:57;;;;;;;12.13;6.35;;;17.30;99.90;;;;;;5057176;28;20076;-59
2022/08/09 06:23:28;;;;;;;10.95;6.70;;;17.40;99.90;;;;;;5058817;28;20051;-59
2022/08/09 06:25:54;;;;;;;12.75;6.97;;;17.40;99.90;;;;;;5057125;28;20555;-58
2022/08/09 06:28:20;;;;;;;10.75;5.72;;;17.50;99.90;;;;;;5058297;28;20049;-57
2022/08/09 06:30:45;;;;;;;9.48;5.65;;;17.50;99.90;;;;;;5057657;28;20127;-58
2022/08/09 06:33:11;;;;;;;10.90;6.28;;;17.60;99.90;;;;;;5057785;28;20049;-58
2022/08/09 06:35:37;;;;;;;11.32;6.97;;;17.70;99.90;;;;;;5058624;28;20128;-57
2022/08/09 06:38:03;;;;;;;8.48;5.65;;;17.80;99.90;;;;;;5056933;28;20052;-58
2022/08/09 06:40:28;;;;;;;10.20;6.32;;;17.90;99.90;;;;;;5058731;28;20053;-57
2022/08/09 06:42:54;;;;;;;9.98;5.57;;;17.70;99.90;;;;;;5056942;28;20037;-57
2022/08/09 06:45:20;;;;;;;8.50;5.05;;;18.00;99.90;;;;;;5058275;28;20041;-57
2022/08/09 06:47:47;;;;;;;9.65;5.28;;;18.10;99.90;;;;;;5056661;28;20048;-58
2022/08/09 06:50:13;;;;;;;10.65;5.60;;;18.10;99.90;;;;;;5057807;28;20090;-57
2022/08/09 06:52:44;;;;;;;9.98;5.18;;;18.20;99.90;;;;;;5058069;28;20041;-58
2022/08/09 06:55:14;;;;;;;11.17;5.50;;;18.30;99.90;;;;;;5056025;28;20041;-57
2022/08/09 06:57:40;;;;;;;11.32;5.75;;;18.30;99.90;;;;;;5058417;28;20101;-58
2022/08/09 07:00:07;;;;;;;8.55;4.97;;;18.30;99.90;;;;;;5054694;28;20072;-58
2022/08/09 07:02:32;;;;;;;8.07;5.13;;;18.40;99.90;;;;;;5058059;28;20319;-57
2022/08/09 07:04:59;;;;;;;9.25;5.10;;;18.40;99.90;;;;;;5057082;28;20040;-57
2022/08/09 07:07:24;;;;;;;8.63;4.95;;;18.60;99.90;;;;;;5057408;28;20052;-57
2022/08/09 07:09:50;;;;;;;8.95;4.65;;;18.70;99.90;;;;;;5058053;28;20057;-57
2022/08/09 07:12:16;;;;;;;9.55;4.65;;;18.80;99.90;;;;;;5054758;28;20056;-57
2022/08/09 07:14:42;;;;;;;8.15;4.43;;;18.80;99.90;;;;;;5057854;28;20061;-58
2022/08/09 07:17:07;;;;;;;7.68;4.53;;;18.90;99.90;;;;;;5056395;28;20120;-57
2022/08/09 07:19:33;;;;;;;7.75;4.10;;;18.90;99.90;;;;;;5056229;28;20045;-58
2022/08/09 07:21:59;;;;;;;6.65;3.97;;;19.00;99.90;;;;;;5052011;28;20064;-57
2022/08/09 07:24:26;;;;;;;9.85;4.65;;;19.00;99.90;;;;;;5043413;28;20060;-58
2022/08/09 07:26:52;;;;;;;9.15;4.53;;;19.00;99.90;;;;;;5037591;28;20453;-58
2022/08/09 07:29:18;;;;;;;8.25;3.88;;;18.90;99.90;;;;;;5037117;28;20049;-58
2022/08/09 07:31:44;;;;;;;7.32;3.95;;;19.00;99.90;;;;;;5057762;28;20851;-58
2022/08/09 07:34:09;;;;;;;9.40;4.80;;;19.10;99.90;;;;;;5055986;28;20083;-59
2022/08/09 07:36:35;;;;;;;10.48;4.47;;;19.20;99.90;;;;;;5054947;28;20033;-59
2022/08/09 07:39:02;;;;;;;7.55;3.97;;;19.30;99.90;;;;;;5056192;28;20075;-58
2022/08/09 07:41:27;;;;;;;7.90;3.65;;;19.40;99.90;;;;;;5057141;28;20106;-59
2022/08/09 07:43:53;;;;;;;7.85;3.53;;;19.50;99.90;;;;;;5056868;28;20048;-58
2022/08/09 07:46:19;;;;;;;6.22;2.83;;;19.40;99.90;;;;;;5054680;28;20048;-58
2022/08/09 07:48:45;;;;;;;6.70;2.92;;;19.40;99.90;;;;;;5057108;28;20044;-58
2022/08/09 07:51:11;;;;;;;6.03;2.60;;;19.60;99.90;;;;;;5055505;28;20124;-59
2022/08/09 07:53:38;;;;;;;6.22;2.40;;;19.60;99.90;;;;;;5057329;28;20068;-58
2022/08/09 07:56:04;;;;;;;4.88;1.95;;;19.70;99.90;;;;;;5055603;28;20041;-59
2022/08/09 07:58:29;;;;;;;8.35;2.58;;;19.80;99.90;;;;;;5050101;28;20076;-57
2022/08/09 08:00:55;;;;;;;8.23;2.55;;;19.90;99.90;;;;;;5036204;28;20041;-57
2022/08/09 08:03:21;;;;;;;5.80;2.33;;;20.00;99.90;;;;;;5034445;28;20068;-57
2022/08/09 08:05:47;;;;;;;5.72;2.95;;;20.10;99.90;;;;;;5037229;28;20069;-58
2022/08/09 08:08:12;;;;;;;5.75;2.90;;;20.20;99.90;;;;;;5035046;28;20132;-57
2022/08/09 08:10:38;;;;;;;7.10;2.50;;;20.20;99.90;;;;;;5041120;28;20501;-58
2022/08/09 08:13:04;;;;;;;6.38;2.50;;;20.30;99.90;;;;;;5034674;28;20084;-57
2022/08/09 08:15:30;;;;;;;6.20;2.20;;;20.30;99.90;;;;;;5035992;28;20111;-57
2022/08/09 08:17:55;;;;;;;6.75;2.22;;;20.30;99.90;;;;;;5036780;28;20053;-58
2022/08/09 08:20:23;;;;;;;5.72;2.58;;;20.50;99.90;;;;;;5039462;28;20048;-58
2022/08/09 08:22:49;;;;;;;6.72;3.35;;;20.50;99.90;;;;;;5038312;28;20038;-57
2022/08/09 08:25:15;;;;;;;7.75;2.72;;;20.30;99.90;;;;;;5038002;28;20046;-57
2022/08/09 08:27:42;;;;;;;5.93;2.60;;;20.20;99.90;;;;;;5039560;28;20089;-58
2022/08/09 08:30:08;;;;;;;6.63;2.22;;;20.10;99.90;;;;;;5045400;28;20052;-58
2022/08/09 08:32:34;;;;;;;7.78;2.60;;;20.10;99.90;;;;;;5059261;28;20119;-58
2022/08/09 08:34:59;;;;;;;6.13;2.20;;;20.00;99.90;;;;;;5058586;28;20508;-59
2022/08/09 08:37:29;;;;;;;8.38;2.20;;;20.00;99.90;;;;;;5058032;28;20116;-57
2022/08/09 08:39:55;;;;;;;7.00;1.73;;;20.00;99.90;;;;;;5059711;28;20591;-57
2022/08/09 08:42:21;;;;;;;4.47;1.33;;;20.10;99.90;;;;;;5057848;28;20033;-59
2022/08/09 08:44:54;;;;;;;5.50;1.80;;;20.10;99.90;;;;;;5059748;28;20072;-59
2022/08/09 08:47:21;;;;;;;3.97;1.60;;;20.20;99.90;;;;;;5057395;28;20040;-57
2022/08/09 08:49:47;;;;;;;3.85;1.33;;;20.30;99.90;;;;;;5059186;28;20045;-57
2022/08/09 08:52:17;;;;;;;4.05;1.38;;;20.20;99.90;;;;;;5057130;28;20048;-57
2022/08/09 08:54:43;;;;;;;6.80;1.20;;;20.20;99.90;;;;;;5058403;28;20045;-57
2022/08/09 08:57:09;;;;;;;3.38;1.13;;;20.10;99.90;;;;;;5059282;28;20502;-57
2022/08/09 08:59:35;;;;;;;4.55;2.00;;;20.20;99.90;;;;;;5057469;28;20044;-57
2022/08/09 09:02:03;;;;;;;4.85;1.80;;;20.10;99.90;;;;;;5059553;28;20041;-58
2022/08/09 09:04:31;;;;;;;4.32;1.60;;;20.20;99.90;;;;;;5058022;28;20135;-59
2022/08/09 09:07:04;;;;;;;6.43;1.65;;;20.20;99.90;;;;;;5059357;28;20047;-58
2022/08/09 09:09:30;;;;;;;4.30;1.40;;;20.40;99.90;;;;;;5057331;28;20049;-57
2022/08/09 09:11:58;;;;;;;4.68;1.70;;;20.60;99.90;;;;;;5057924;28;20097;-58
2022/08/09 09:14:26;;;;;;;4.38;1.70;;;20.60;99.90;;;;;;5059356;28;20057;-58
2022/08/09 09:16:52;;;;;;;6.00;1.70;;;20.80;99.90;;;;;;5057555;28;20041;-58
2022/08/09 09:19:18;;;;;;;3.67;1.33;;;20.70;99.90;;;;;;5059031;28;20116;-58
2022/08/09 09:21:58;;;;;;;4.30;1.35;;;20.60;99.90;;;;;;5057597;28;20049;-58
2022/08/09 09:24:29;;;;;;;5.43;1.50;;;20.60;99.90;;;;;;5058670;28;20089;-58
2022/08/09 09:26:57;;;;;;;3.90;1.13;;;20.50;99.90;;;;;;5059410;28;20084;-58
2022/08/09 09:29:30;;;;;;;4.43;1.60;;;20.60;99.90;;;;;;5055677;28;20087;-58
2022/08/09 09:31:56;;;;;;;4.25;1.45;;;20.50;99.90;;;;;;5039222;28;20076;-58
2022/08/09 09:34:22;;;;;;;4.00;1.52;;;20.60;99.90;;;;;;5036983;28;20057;-57
2022/08/09 09:36:47;;;;;;;4.20;2.22;;;20.80;99.90;;;;;;5038298;28;20041;-59
2022/08/09 09:39:13;;;;;;;5.03;1.33;;;21.00;99.90;;;;;;5054193;28;20045;-58
2022/08/09 09:41:39;;;;;;;102.82;10.65;;;21.10;99.90;;;;;;5057729;28;20581;-58
2022/08/09 09:44:06;;;;;;;3.83;1.35;;;21.40;99.90;;;;;;5057968;28;20072;-59
2022/08/09 09:46:44;;;;;;;3.60;1.23;;;21.60;99.90;;;;;;5056562;28;20080;-58
2022/08/09 09:49:12;;;;;;;2.92;0.90;;;21.90;99.90;;;;;;5057823;28;20045;-58
2022/08/09 09:51:39;;;;;;;45.92;3.83;;;22.00;99.90;;;;;;5056581;28;20041;-58
2022/08/09 09:54:09;;;;;;;5.88;1.33;;;22.20;99.90;;;;;;5058060;28;20107;-58
2022/08/09 09:56:40;;;;;;;1.67;0.80;;;22.30;99.90;;;;;;5058238;28;20047;-57
2022/08/09 09:59:07;;;;;;;2.47;0.80;;;22.40;99.90;;;;;;5059091;28;20116;-59
2022/08/09 10:01:33;;;;;;;17.67;2.33;;;22.40;99.90;;;;;;5062168;28;20083;-58
2022/08/09 10:03:59;;;;;;;12.55;1.80;;;22.60;99.90;;;;;;5060565;28;20037;-58
2022/08/09 10:06:36;;;;;;;8.05;1.38;;;22.70;99.90;;;;;;5062433;28;20033;-58
2022/08/09 10:09:03;;;;;;;2.15;0.93;;;22.80;99.90;;;;;;5060958;28;20123;-58
2022/08/09 10:11:32;;;;;;;2.88;0.90;;;22.40;99.90;;;;;;5060425;28;20075;-58
2022/08/09 10:13:58;;;;;;;4.85;1.13;;;22.50;99.90;;;;;;5061922;28;20092;-57
2022/08/09 10:16:30;;;;;;;4.32;1.00;;;22.40;99.90;;;;;;5060819;28;20084;-57
2022/08/09 10:18:59;;;;;;;2.72;0.80;;;22.60;99.90;;;;;;5062334;28;20093;-59
2022/08/09 10:21:25;;;;;;;4.60;1.10;;;22.70;99.90;;;;;;5059414;28;20049;-57
2022/08/09 10:23:52;;;;;;;3.20;1.20;;;22.70;99.90;;;;;;5061829;28;20048;-58
2022/08/09 10:26:20;;;;;;;6.53;1.38;;;22.70;99.90;;;;;;5061260;28;20064;-58
2022/08/09 10:28:46;;;;;;;4.30;1.35;;;22.70;99.90;;;;;;5061416;28;20094;-58
2022/08/09 10:31:12;;;;;;;4.03;1.00;;;22.80;99.90;;;;;;5045383;28;20049;-57
2022/08/09 10:33:39;;;;;;;2.60;0.88;;;22.90;99.90;;;;;;5040563;28;20043;-57
2022/08/09 10:36:08;;;;;;;2.17;0.85;;;22.90;99.90;;;;;;5041954;28;20072;-57
2022/08/09 10:38:35;;;;;;;2.63;0.90;;;23.10;99.90;;;;;;5052094;28;20041;-58
2022/08/09 10:41:02;;;;;;;1.45;0.70;;;23.30;99.90;;;;;;5061530;28;20045;-58
2022/08/09 10:43:28;;;;;;;4.97;1.10;;;23.40;99.90;;;;;;5060936;28;20609;-57
2022/08/09 10:45:54;;;;;;;2.33;0.80;;;23.40;99.90;;;;;;5061051;28;20052;-57
2022/08/09 10:48:31;;;;;;;2.33;1.00;;;23.60;99.90;;;;;;5061673;28;20049;-59
2022/08/09 10:51:20;;;;;;;3.92;1.10;;;23.60;99.90;;;;;;5059737;28;20048;-58
2022/08/09 10:54:12;;;;;;;4.25;1.05;;;23.50;99.90;;;;;;5061313;28;20131;-57
2022/08/09 10:56:40;;;;;;;6.32;1.10;;;23.20;99.90;;;;;;5061125;28;20053;-57
2022/08/09 10:59:21;;;;;;;1.55;0.70;;;23.10;99.90;;;;;;5060291;28;20045;-58
2022/08/09 11:01:50;;;;;;;2.97;0.80;;;23.30;99.90;;;;;;5061686;28;20152;-57
2022/08/09 11:04:20;;;;;;;2.13;0.82;;;23.40;99.90;;;;;;5060081;28;20052;-57
2022/08/09 11:07:08;;;;;;;4.07;0.93;;;23.40;99.90;;;;;;5061076;28;20055;-58
2022/08/09 11:09:37;;;;;;;3.00;0.80;;;23.50;99.90;;;;;;5060668;28;20408;-57
2022/08/09 11:12:35;;;;;;;2.58;0.85;;;23.70;99.90;;;;;;5059215;28;20053;-57
2022/08/09 11:15:06;;;;;;;2.10;0.60;;;23.40;99.90;;;;;;5037436;28;20045;-57
2022/08/09 11:17:33;;;;;;;1.45;0.60;;;23.40;99.90;;;;;;5059576;28;20116;-57
2022/08/09 11:20:10;;;;;;;1.08;0.70;;;23.50;99.90;;;;;;5060624;28;20056;-57
2022/08/09 11:22:55;;;;;;;1.13;0.50;;;23.40;99.90;;;;;;5060729;28;20060;-56
2022/08/09 11:25:27;;;;;;;1.70;0.70;;;23.40;99.90;;;;;;5059390;28;20041;-57
2022/08/09 11:27:55;;;;;;;1.85;0.70;;;23.50;99.90;;;;;;5060839;28;20045;-57
2022/08/09 11:30:26;;;;;;;2.17;0.55;;;23.60;99.90;;;;;;5049811;28;20037;-57
2022/08/09 11:33:24;;;;;;;1.42;0.70;;;23.60;99.90;;;;;;5039999;28;20058;-57
2022/08/09 11:35:56;;;;;;;1.80;0.57;;;23.70;99.90;;;;;;5040812;28;20057;-58
2022/08/09 11:38:28;;;;;;;1.50;0.60;;;23.80;99.90;;;;;;5048706;28;20045;-57
2022/08/09 11:40:54;;;;;;;2.45;0.70;;;23.60;99.90;;;;;;5059933;28;20049;-57
2022/08/09 11:43:26;;;;;;;2.00;0.80;;;23.70;99.90;;;;;;5059080;28;20042;-57
2022/08/09 11:46:00;;;;;;;10.80;1.50;;;23.70;99.90;;;;;;5059656;28;20068;-58
2022/08/09 11:48:29;;;;;;;10.38;1.65;;;23.80;99.90;;;;;;5060328;28;20055;-57
2022/08/09 11:50:57;;;;;;;7.63;1.00;;;23.60;99.90;;;;;;5057933;28;20037;-57
2022/08/09 11:53:27;;;;;;;3.05;0.70;;;23.60;99.90;;;;;;5060189;28;20041;-59
2022/08/09 11:55:59;;;;;;;3.30;0.90;;;23.80;99.90;;;;;;5058537;28;20045;-57
2022/08/09 11:58:46;;;;;;;1.67;0.70;;;23.80;99.90;;;;;;5057898;28;20444;-58
2022/08/09 12:01:18;;;;;;;4.47;0.70;;;23.60;99.90;;;;;;5059734;28;20052;-58
2022/08/09 12:03:45;;;;;;;2.33;0.70;;;23.70;99.90;;;;;;5058110;28;20088;-58
2022/08/09 12:06:20;;;;;;;2.40;0.80;;;23.70;99.90;;;;;;5058656;28;20400;-58
2022/08/09 12:08:51;;;;;;;1.73;0.70;;;23.80;99.90;;;;;;5058041;28;20056;-58
2022/08/09 12:11:22;;;;;;;0.68;0.60;;;24.00;99.90;;;;;;5059147;28;20442;-58
2022/08/09 12:13:53;;;;;;;2.08;0.75;;;23.90;99.90;;;;;;5059285;28;20562;-58
2022/08/09 12:16:22;;;;;;;1.00;0.52;;;24.00;99.90;;;;;;5058036;28;20128;-56
2022/08/09 12:18:49;;;;;;;2.00;0.77;;;23.80;99.90;;;;;;5059475;28;20061;-58
2022/08/09 12:21:26;;;;;;;1.83;0.70;;;23.80;99.90;;;;;;5057346;28;20068;-58
2022/08/09 12:23:52;;;;;;;2.33;0.73;;;23.70;99.90;;;;;;5058901;28;20646;-58
2022/08/09 12:26:19;;;;;;;1.75;0.70;;;23.80;99.90;;;;;;5058426;28;20643;-57
2022/08/09 12:28:54;;;;;;;1.52;0.80;;;23.70;99.90;;;;;;5058490;28;20055;-58
2022/08/09 12:31:25;;;;;;;1.30;0.60;;;23.80;99.90;;;;;;5041982;28;20111;-58
2022/08/09 12:33:53;;;;;;;5.23;1.00;;;23.80;99.90;;;;;;5037640;28;20075;-57
2022/08/09 12:36:19;;;;;;;1.85;0.65;;;23.80;99.90;;;;;;5038972;28;20929;-59
2022/08/09 12:38:45;;;;;;;2.20;0.70;;;23.90;99.90;;;;;;5050964;28;20044;-58
2022/08/09 12:41:12;;;;;;;1.65;0.65;;;23.70;99.90;;;;;;5058923;28;20047;-58
2022/08/09 12:43:38;;;;;;;2.85;0.70;;;24.00;99.90;;;;;;5058258;28;20049;-59
2022/08/09 12:46:04;;;;;;;1.83;0.60;;;23.90;99.90;;;;;;5057640;28;20082;-59
2022/08/09 12:48:31;;;;;;;2.97;0.70;;;24.00;99.90;;;;;;5059093;28;20068;-58
2022/08/09 12:50:58;;;;;;;1.95;0.80;;;24.00;99.90;;;;;;5057053;28;20052;-57
2022/08/09 12:53:29;;;;;;;5.70;0.90;;;24.00;99.90;;;;;;5058909;28;20174;-58